Time;durP1;ratioP1;P1;durP2;ratioP2;P2;SDS_P1;SDS_P2;PMS_P1;PMS_P2;Temp;Humidity;BMP_temperature;BMP_pressure;BME280_temperature;BME280_humidity;BME280_pressure;Samples;Min_cycle;Max_cycle;Signal;HPM_P1;HPM_P2
2021/01/10 07:58:34;;;;;;;;;10.00;10.00;;;;;;;;1526711;28;88082;-87
2021/01/10 07:59:19;;;;;;;;;10.00;10.00;;;;;;;;1528818;28;90199;-87
2021/01/10 08:00:27;;;;;;;;;13.25;13.25;;;;;;;;1528921;28;87653;-86
2021/01/10 08:01:12;;;;;;;;;8.40;8.40;;;;;;;;1533661;28;90449;-86
2021/01/10 08:01:57;;;;;;;;;8.00;8.00;;;;;;;;1535111;28;87592;-86
2021/01/10 08:02:50;;;;;;;;;12.50;12.50;;;;;;;;1528904;28;90509;-87
2021/01/10 08:03:35;;;;;;;;;11.40;11.40;;;;;;;;1535129;28;89861;-86
2021/01/10 08:04:33;;;;;;;;;8.25;8.25;;;;;;;;1540837;28;90369;-86
2021/01/10 08:05:23;;;;;;;;;14.00;14.00;;;;;;;;1531420;28;91299;-86
2021/01/10 08:06:08;;;;;;;;;14.60;14.60;;;;;;;;1534871;28;91657;-86
2021/01/10 08:06:55;;;;;;;;;9.25;9.25;;;;;;;;1537399;28;88509;-85
2021/01/10 08:07:51;;;;;;;;;9.80;9.80;;;;;;;;1536863;28;87891;-86
2021/01/10 08:08:40;;;;;;;;;8.00;8.00;;;;;;;;1522762;28;90632;-86
2021/01/10 08:09:29;;;;;;;;;12.00;10.20;;;;;;;;1529309;28;90872;-86
2021/01/10 08:10:15;;;;;;;;;12.00;12.00;;;;;;;;1532116;28;87787;-86
2021/01/10 08:11:00;;;;;;;;;13.25;13.25;;;;;;;;1528754;28;90387;-86
2021/01/10 08:11:52;;;;;;;;;13.25;13.25;;;;;;;;1528916;28;89364;-86
2021/01/10 08:12:39;;;;;;;;;11.40;11.40;;;;;;;;1531585;28;90141;-86
2021/01/10 08:13:31;;;;;;;;;15.00;15.00;;;;;;;;1528378;28;90831;-86
2021/01/10 08:14:16;;;;;;;;;14.20;14.20;;;;;;;;1522755;28;90418;-86
2021/01/10 08:15:03;;;;;;;;;12.50;12.50;;;;;;;;1525341;28;91803;-86
2021/01/10 08:15:48;;;;;;;;;5.60;5.60;;;;;;;;1523003;28;90547;-86
2021/01/10 08:16:33;;;;;;;;;10.00;10.00;;;;;;;;1522896;28;90440;-86
2021/01/10 08:17:19;;;;;;;;;9.50;9.50;;;;;;;;1522902;28;90307;-87
2021/01/10 08:18:04;;;;;;;;;12.25;12.25;;;;;;;;1520613;28;91377;-87
2021/01/10 08:18:50;;;;;;;;;12.00;12.00;;;;;;;;1517048;28;90629;-88
2021/01/10 08:19:37;;;;;;;;;15.00;15.00;;;;;;;;1518850;28;89585;-86
2021/01/10 08:20:22;;;;;;;;;11.00;11.00;;;;;;;;1525342;28;89628;-88
2021/01/10 08:21:09;;;;;;;;;9.25;9.25;;;;;;;;1522545;28;90517;-87
2021/01/10 08:21:54;;;;;;;;;11.00;11.00;;;;;;;;1522736;28;90448;-87
2021/01/10 08:22:40;;;;;;;;;8.50;8.50;;;;;;;;1520319;28;91594;-88
2021/01/10 08:23:25;;;;;;;;;11.00;11.00;;;;;;;;1535086;28;87760;-87
2021/01/10 08:24:11;;;;;;;;;8.00;8.00;;;;;;;;1530582;28;90167;-87
2021/01/10 08:24:56;;;;;;;;;10.25;10.25;;;;;;;;1528977;28;90768;-87
2021/01/10 08:25:41;;;;;;;;;12.50;12.50;;;;;;;;1530750;28;90701;-87
2021/01/10 08:26:27;;;;;;;;;10.25;10.25;;;;;;;;1533753;28;90501;-88
2021/01/10 08:27:13;;;;;;;;;13.00;12.00;;;;;;;;1528663;28;86879;-87
2021/01/10 08:27:58;;;;;;;;;9.00;9.00;;;;;;;;1529386;28;86320;-86
2021/01/10 08:28:45;;;;;;;;;12.75;12.75;;;;;;;;1531100;28;87333;-88
2021/01/10 08:29:30;;;;;;;;;14.60;11.40;;;;;;;;1528859;28;86827;-87
2021/01/10 08:30:16;;;;;;;;;12.25;12.25;;;;;;;;1528853;28;87995;-87
2021/01/10 08:31:06;;;;;;;;;10.00;10.00;;;;;;;;1530941;28;86938;-87
2021/01/10 08:31:51;;;;;;;;;9.80;9.80;;;;;;;;1528820;28;87378;-87
2021/01/10 08:32:37;;;;;;;;;13.00;13.00;;;;;;;;1528810;28;87112;-88
2021/01/10 08:33:22;;;;;;;;;12.25;12.25;;;;;;;;1524751;28;87037;-88
2021/01/10 08:34:08;;;;;;;;;13.00;13.00;;;;;;;;1528954;28;87162;-87
2021/01/10 08:34:55;;;;;;;;;11.20;11.20;;;;;;;;1529064;28;86858;-88
2021/01/10 08:35:40;;;;;;;;;10.80;10.80;;;;;;;;1529240;28;86238;-88
2021/01/10 08:36:25;;;;;;;;;11.50;11.50;;;;;;;;1522836;28;87161;-87
2021/01/10 08:37:11;;;;;;;;;10.75;10.75;;;;;;;;1522910;28;86806;-88
2021/01/10 08:37:56;;;;;;;;;12.25;12.25;;;;;;;;1524641;28;87841;-88
2021/01/10 08:38:49;;;;;;;;;11.50;11.50;;;;;;;;1520842;28;87099;-88
2021/01/10 08:39:34;;;;;;;;;12.20;12.20;;;;;;;;1513979;28;87004;-87
2021/01/10 08:40:19;;;;;;;;;12.50;12.50;;;;;;;;1519705;28;87245;-88
2021/01/10 08:41:04;;;;;;;;;12.00;12.00;;;;;;;;1524529;28;86910;-87
2021/01/10 08:41:50;;;;;;;;;9.75;9.75;;;;;;;;1521131;28;86966;-86
2021/01/10 08:42:36;;;;;;;;;9.00;9.00;;;;;;;;1512849;28;87268;-88
2021/01/10 08:43:21;;;;;;;;;10.00;10.00;;;;;;;;1524544;28;88237;-87
2021/01/10 08:44:11;;;;;;;;;12.25;12.25;;;;;;;;1524576;28;86880;-87
2021/01/10 08:45:11;;;;;;;;;11.20;11.20;;;;;;;;1526302;28;86956;-87
2021/01/10 08:45:56;;;;;;;;;11.20;9.60;;;;;;;;1527078;28;87720;-87
2021/01/10 08:46:43;;;;;;;;;11.25;11.25;;;;;;;;1526850;28;87119;-87
2021/01/10 08:47:28;;;;;;;;;12.00;12.00;;;;;;;;1522759;28;87230;-87
2021/01/10 08:48:13;;;;;;;;;10.00;10.00;;;;;;;;1516593;28;86920;-87
2021/01/10 08:48:59;;;;;;;;;9.25;9.25;;;;;;;;1521668;28;87024;-87
2021/01/10 08:49:45;;;;;;;;;11.80;11.80;;;;;;;;1518842;28;90297;-88
2021/01/10 08:50:39;;;;;;;;;9.50;9.50;;;;;;;;1520759;28;90767;-87
2021/01/10 08:51:37;;;;;;;;;8.20;8.20;;;;;;;;1514253;28;90563;-87
2021/01/10 08:52:23;;;;;;;;;9.40;9.40;;;;;;;;1515666;28;89512;-87
2021/01/10 08:53:08;;;;;;;;;9.00;9.00;;;;;;;;1520929;28;88020;-88
2021/01/10 08:53:53;;;;;;;;;10.00;10.00;;;;;;;;1530525;28;90088;-86
2021/01/10 08:54:48;;;;;;;;;9.75;9.75;;;;;;;;1528725;28;90154;-88
2021/01/10 08:55:35;;;;;;;;;11.80;11.80;;;;;;;;1528738;28;87569;-86
2021/01/10 08:56:21;;;;;;;;;11.20;11.20;;;;;;;;1528479;28;90499;-87
2021/01/10 08:57:07;;;;;;;;;12.60;12.60;;;;;;;;1522802;28;90051;-88
2021/01/10 08:57:53;;;;;;;;;9.80;9.80;;;;;;;;1524634;28;89952;-88
2021/01/10 08:58:39;;;;;;;;;12.50;12.50;;;;;;;;1530501;28;90193;-89
2021/01/10 08:59:37;;;;;;;;;5.40;5.40;;;;;;;;1528868;28;90438;-86
2021/01/10 09:00:24;;;;;;;;;13.00;13.00;;;;;;;;1522998;28;89630;-88
2021/01/10 09:01:18;;;;;;;;;13.60;13.60;;;;;;;;1526483;28;90779;-87
2021/01/10 09:02:06;;;;;;;;;11.80;11.80;;;;;;;;1531859;28;89999;-87
2021/01/10 09:02:52;;;;;;;;;13.20;12.40;;;;;;;;1528466;28;91330;-86
2021/01/10 09:03:37;;;;;;;;;10.50;10.50;;;;;;;;1522468;28;90168;-89
2021/01/10 09:04:22;;;;;;;;;11.50;11.50;;;;;;;;1524723;28;89247;-87
2021/01/10 09:05:08;;;;;;;;;5.00;5.00;;;;;;;;1524739;28;90949;-88
2021/01/10 09:05:54;;;;;;;;;12.00;12.00;;;;;;;;1522767;28;90479;-84
2021/01/10 09:06:45;;;;;;;;;11.20;11.20;;;;;;;;1524847;28;89205;-86
2021/01/10 09:07:31;;;;;;;;;9.20;9.20;;;;;;;;1531625;28;87901;-87
2021/01/10 09:08:52;;;;;;;;;11.80;11.80;;;;;;;;1528726;28;89736;-88
2021/01/10 09:09:52;;;;;;;;;14.40;14.20;;;;;;;;1511108;28;90559;-89
2021/01/10 09:10:42;;;;;;;;;14.40;14.40;;;;;;;;1510220;28;89404;-89
2021/01/10 09:11:30;;;;;;;;;11.40;11.40;;;;;;;;1508972;28;92204;-90
2021/01/10 09:12:34;;;;;;;;;13.00;13.00;;;;;;;;1510221;28;89069;-88
2021/01/10 09:13:22;;;;;;;;;14.40;12.80;;;;;;;;1516810;28;87796;-89
2021/01/10 09:14:10;;;;;;;;;17.00;17.00;;;;;;;;1516659;28;90530;-88
2021/01/10 09:14:58;;;;;;;;;18.20;17.40;;;;;;;;1513376;28;90509;-87
2021/01/10 09:15:45;;;;;;;;;11.80;11.80;;;;;;;;1513317;28;90774;-88
2021/01/10 09:16:31;;;;;;;;;14.80;14.80;;;;;;;;1519300;28;86299;-88
2021/01/10 09:17:20;;;;;;;;;10.60;10.60;;;;;;;;1524700;28;89840;-87
2021/01/10 09:18:05;;;;;;;;;14.00;14.00;;;;;;;;1522080;28;90099;-88
2021/01/10 09:18:51;;;;;;;;;13.00;13.00;;;;;;;;1516269;28;90225;-89
2021/01/10 09:19:37;;;;;;;;;16.20;16.20;;;;;;;;1518240;28;91504;-88
2021/01/10 09:20:26;;;;;;;;;17.50;17.50;;;;;;;;1522482;28;90536;-88
2021/01/10 09:21:11;;;;;;;;;10.00;10.00;;;;;;;;1519103;28;90493;-89
2021/01/10 09:21:57;;;;;;;;;14.00;14.00;;;;;;;;1517335;28;89754;-87
2021/01/10 09:22:42;;;;;;;;;14.25;14.25;;;;;;;;1511705;28;90967;-86
2021/01/10 09:23:28;;;;;;;;;17.75;15.75;;;;;;;;1507302;28;90640;-87
2021/01/10 09:24:14;;;;;;;;;13.20;13.20;;;;;;;;1518146;28;86391;-87
2021/01/10 09:25:07;;;;;;;;;14.40;14.40;;;;;;;;1524317;28;88051;-86
2021/01/10 09:25:52;;;;;;;;;11.80;11.80;;;;;;;;1528239;28;89481;-86
2021/01/10 09:26:37;;;;;;;;;13.00;13.00;;;;;;;;1527525;28;89327;-84
2021/01/10 09:27:23;;;;;;;;;13.50;13.50;;;;;;;;1528219;28;88011;-85
2021/01/10 09:28:11;;;;;;;;;13.50;13.50;;;;;;;;1521982;28;90070;-85
2021/01/10 09:28:57;;;;;;;;;18.40;18.40;;;;;;;;1522344;28;88239;-85
2021/01/10 09:29:43;;;;;;;;;19.00;17.60;;;;;;;;1518608;28;90318;-86
2021/01/10 09:30:31;;;;;;;;;18.00;14.00;;;;;;;;1516410;28;88944;-85
2021/01/10 09:31:16;;;;;;;;;15.40;15.40;;;;;;;;1518572;28;87677;-86
2021/01/10 09:32:02;;;;;;;;;17.75;17.75;;;;;;;;1518744;28;89896;-86
2021/01/10 09:32:47;;;;;;;;;18.50;18.25;;;;;;;;1522269;28;86968;-86
2021/01/10 09:33:32;;;;;;;;;18.50;18.50;;;;;;;;1521819;28;86969;-87
2021/01/10 09:34:23;;;;;;;;;12.50;12.50;;;;;;;;1516158;28;91415;-86
2021/01/10 09:35:09;;;;;;;;;17.60;17.60;;;;;;;;1512951;28;89350;-86
2021/01/10 09:35:55;;;;;;;;;18.75;17.25;;;;;;;;1507400;28;87188;-87
2021/01/10 09:36:40;;;;;;;;;21.80;19.60;;;;;;;;1512288;28;87268;-87
2021/01/10 09:37:29;;;;;;;;;18.25;18.25;;;;;;;;1510433;28;87132;-87
2021/01/10 09:38:16;;;;;;;;;15.20;15.20;;;;;;;;1512537;28;87226;-90
2021/01/10 09:39:02;;;;;;;;;16.60;16.60;;;;;;;;1510784;28;87231;-89
2021/01/10 09:39:47;;;;;;;;;14.00;14.00;;;;;;;;1506595;28;86543;-88
2021/01/10 09:40:33;;;;;;;;;15.25;14.00;;;;;;;;1506794;28;87175;-87
2021/01/10 09:41:18;;;;;;;;;15.00;15.00;;;;;;;;1506448;28;87398;-89
2021/01/10 09:42:03;;;;;;;;;15.75;15.75;;;;;;;;1512377;28;87902;-88
2021/01/10 09:42:50;;;;;;;;;14.50;14.50;;;;;;;;1512219;28;87197;-87
2021/01/10 09:43:42;;;;;;;;;13.00;13.00;;;;;;;;1518622;28;86986;-89
2021/01/10 09:44:28;;;;;;;;;11.60;11.60;;;;;;;;1519189;28;87059;-87
2021/01/10 09:45:14;;;;;;;;;9.75;9.75;;;;;;;;1522558;28;87045;-86
2021/01/10 09:45:59;;;;;;;;;10.80;10.80;;;;;;;;1518558;28;87061;-87
2021/01/10 09:46:54;;;;;;;;;12.50;11.25;;;;;;;;1522343;28;87062;-87
2021/01/10 09:47:40;;;;;;;;;12.80;12.80;;;;;;;;1525799;28;86148;-87
2021/01/10 09:48:25;;;;;;;;;9.75;9.75;;;;;;;;1525197;28;86958;-87
2021/01/10 09:49:18;;;;;;;;;14.00;14.00;;;;;;;;1522443;28;87311;-86
2021/01/10 09:50:12;;;;;;;;;16.00;16.00;;;;;;;;1516478;28;87947;-87
2021/01/10 09:51:06;;;;;;;;;13.60;13.60;;;;;;;;1516442;28;87290;-87
2021/01/10 09:51:53;;;;;;;;;14.40;14.40;;;;;;;;1520636;28;87384;-87
2021/01/10 09:52:53;;;;;;;;;14.60;14.60;;;;;;;;1524424;28;87004;-87
2021/01/10 09:53:38;;;;;;;;;11.00;11.00;;;;;;;;1522249;28;87597;-87
2021/01/10 09:54:28;;;;;;;;;14.75;14.75;;;;;;;;1516272;28;87150;-87
2021/01/10 09:55:13;;;;;;;;;14.40;14.40;;;;;;;;1518986;28;87115;-87
2021/01/10 09:55:58;;;;;;;;;17.25;17.25;;;;;;;;1525286;28;86148;-87
2021/01/10 09:56:44;;;;;;;;;9.50;9.50;;;;;;;;1528415;28;86920;-87
2021/01/10 09:57:29;;;;;;;;;13.25;13.25;;;;;;;;1531381;28;87208;-87
2021/01/10 09:58:15;;;;;;;;;15.75;15.75;;;;;;;;1531012;28;90426;-86
2021/01/10 09:59:00;;;;;;;;;11.50;11.50;;;;;;;;1522575;28;91521;-87
2021/01/10 09:59:45;;;;;;;;;17.00;16.00;;;;;;;;1524057;28;90206;-86
2021/01/10 10:00:30;;;;;;;;;10.50;10.50;;;;;;;;1516401;28;88866;-87
2021/01/10 10:01:16;;;;;;;;;15.50;14.75;;;;;;;;1518171;28;90166;-87
2021/01/10 10:02:16;;;;;;;;;20.00;20.00;;;;;;;;1524083;28;91038;-87
2021/01/10 10:03:08;;;;;;;;;13.40;13.40;;;;;;;;1522383;28;90681;-87
2021/01/10 10:03:55;;;;;;;;;10.60;10.60;;;;;;;;1522587;28;86964;-86
2021/01/10 10:04:45;;;;;;;;;11.60;11.60;;;;;;;;1527447;28;88058;-86
2021/01/10 10:05:30;;;;;;;;;10.60;10.60;;;;;;;;1521391;28;90782;-86
2021/01/10 10:06:15;;;;;;;;;10.50;10.50;;;;;;;;1523838;28;90273;-86
2021/01/10 10:07:01;;;;;;;;;14.25;14.25;;;;;;;;1524474;28;90722;-87
2021/01/10 10:07:47;;;;;;;;;9.20;9.20;;;;;;;;1521753;28;90735;-87
2021/01/10 10:08:33;;;;;;;;;11.00;11.00;;;;;;;;1521778;28;89444;-87
2021/01/10 10:09:18;;;;;;;;;7.50;7.50;;;;;;;;1525209;28;90103;-86
2021/01/10 10:10:05;;;;;;;;;11.00;11.00;;;;;;;;1528402;28;89253;-86
2021/01/10 10:10:50;;;;;;;;;10.00;10.00;;;;;;;;1524077;28;87038;-88
2021/01/10 10:11:36;;;;;;;;;3.00;3.00;;;;;;;;1530888;28;90276;-87
2021/01/10 10:12:22;;;;;;;;;8.00;8.00;;;;;;;;1527995;28;89492;-87
2021/01/10 10:13:09;;;;;;;;;11.20;11.20;;;;;;;;1524307;28;90013;-87
2021/01/10 10:13:57;;;;;;;;;12.20;11.40;;;;;;;;1530560;28;88058;-88
2021/01/10 10:14:52;;;;;;;;;11.60;11.60;;;;;;;;1525712;28;91205;-87
2021/01/10 10:15:45;;;;;;;;;11.00;11.00;;;;;;;;1528543;28;90621;-87
2021/01/10 10:16:30;;;;;;;;;12.00;12.00;;;;;;;;1532698;28;90106;-87
2021/01/10 10:17:16;;;;;;;;;11.00;11.00;;;;;;;;1528443;28;90056;-87
2021/01/10 10:18:01;;;;;;;;;10.00;10.00;;;;;;;;1526526;28;89537;-87
2021/01/10 10:18:46;;;;;;;;;10.00;10.00;;;;;;;;1524416;28;88566;-87
2021/01/10 10:19:31;;;;;;;;;13.00;13.00;;;;;;;;1528339;28;90285;-87
2021/01/10 10:20:17;;;;;;;;;12.00;12.00;;;;;;;;1525227;28;88247;-87
2021/01/10 10:21:02;;;;;;;;;14.50;14.50;;;;;;;;1516538;28;89449;-87
2021/01/10 10:21:47;;;;;;;;;15.25;13.50;;;;;;;;1512192;28;90630;-87
2021/01/10 10:22:34;;;;;;;;;13.50;13.50;;;;;;;;1522313;28;89402;-87
2021/01/10 10:23:19;;;;;;;;;13.40;13.40;;;;;;;;1523552;28;90225;-87
2021/01/10 10:24:05;;;;;;;;;16.50;15.00;;;;;;;;1528222;28;87016;-87
2021/01/10 10:24:50;;;;;;;;;11.50;11.50;;;;;;;;1528307;28;87754;-87
2021/01/10 10:25:36;;;;;;;;;12.00;11.60;;;;;;;;1528086;28;90175;-87
2021/01/10 10:26:22;;;;;;;;;8.00;8.00;;;;;;;;1528034;28;90678;-87
2021/01/10 10:27:07;;;;;;;;;11.50;11.50;;;;;;;;1530045;28;86747;-87
2021/01/10 10:27:54;;;;;;;;;11.25;11.25;;;;;;;;1527717;28;89280;-87
2021/01/10 10:28:39;;;;;;;;;13.00;13.00;;;;;;;;1526000;28;90854;-87
2021/01/10 10:29:24;;;;;;;;;12.25;12.25;;;;;;;;1527962;28;90232;-87
2021/01/10 10:30:10;;;;;;;;;12.00;12.00;;;;;;;;1528428;28;86877;-87
2021/01/10 10:30:55;;;;;;;;;11.00;11.00;;;;;;;;1526196;28;87628;-87
2021/01/10 10:31:40;;;;;;;;;12.00;12.00;;;;;;;;1522233;28;89281;-88
2021/01/10 10:32:26;;;;;;;;;11.25;11.25;;;;;;;;1522256;28;89919;-86
2021/01/10 10:33:11;;;;;;;;;12.00;12.00;;;;;;;;1524303;28;90585;-87
2021/01/10 10:33:56;;;;;;;;;8.00;8.00;;;;;;;;1522163;28;90626;-86
2021/01/10 10:34:41;;;;;;;;;11.00;11.00;;;;;;;;1522271;28;87482;-87
2021/01/10 10:35:27;;;;;;;;;11.00;11.00;;;;;;;;1524049;28;90543;-87
2021/01/10 10:36:12;;;;;;;;;13.50;13.50;;;;;;;;1522074;28;90357;-87
2021/01/10 10:36:57;;;;;;;;;11.00;11.00;;;;;;;;1522579;28;91725;-88
2021/01/10 10:37:43;;;;;;;;;13.00;13.00;;;;;;;;1523999;28;89402;-88
2021/01/10 10:38:28;;;;;;;;;8.50;8.50;;;;;;;;1523963;28;89572;-87
2021/01/10 10:39:13;;;;;;;;;9.50;9.50;;;;;;;;1519439;28;90504;-87
2021/01/10 10:39:59;;;;;;;;;14.00;14.00;;;;;;;;1527552;28;89754;-88
2021/01/10 10:40:44;;;;;;;;;12.00;12.00;;;;;;;;1531651;28;86991;-88
2021/01/10 10:41:32;;;;;;;;;11.75;11.75;;;;;;;;1532037;28;90783;-87
2021/01/10 10:42:18;;;;;;;;;11.00;11.00;;;;;;;;1530067;28;86308;-88
2021/01/10 10:43:03;;;;;;;;;13.80;13.00;;;;;;;;1532393;28;87003;-87
2021/01/10 10:43:48;;;;;;;;;8.00;8.00;;;;;;;;1529379;28;87208;-87
2021/01/10 10:44:33;;;;;;;;;8.00;8.00;;;;;;;;1529138;28;87902;-87
2021/01/10 10:45:19;;;;;;;;;8.00;7.00;;;;;;;;1531114;28;86921;-89
2021/01/10 10:46:04;;;;;;;;;6.75;6.75;;;;;;;;1529046;28;87011;-87
2021/01/10 10:46:49;;;;;;;;;8.00;8.00;;;;;;;;1523523;28;87176;-88
2021/01/10 10:47:34;;;;;;;;;8.00;8.00;;;;;;;;1524944;28;87180;-88
2021/01/10 10:48:20;;;;;;;;;8.25;8.25;;;;;;;;1529103;28;87238;-87
2021/01/10 10:49:05;;;;;;;;;9.25;9.25;;;;;;;;1525028;28;87551;-87
2021/01/10 10:49:50;;;;;;;;;7.00;7.00;;;;;;;;1523268;28;86960;-88
2021/01/10 10:50:35;;;;;;;;;7.00;7.00;;;;;;;;1524880;28;87227;-88
2021/01/10 10:51:21;;;;;;;;;7.75;7.75;;;;;;;;1525126;28;86996;-87
2021/01/10 10:52:07;;;;;;;;;6.50;6.50;;;;;;;;1528398;28;88146;-87
2021/01/10 10:52:52;;;;;;;;;8.80;8.80;;;;;;;;1522991;28;86965;-88
2021/01/10 10:53:37;;;;;;;;;8.50;8.50;;;;;;;;1523186;28;87140;-87
2021/01/10 10:54:22;;;;;;;;;8.50;8.50;;;;;;;;1518971;28;87148;-88
2021/01/10 10:55:08;;;;;;;;;8.00;7.00;;;;;;;;1519222;28;87516;-90
2021/01/10 10:55:53;;;;;;;;;8.00;8.00;;;;;;;;1524525;28;87020;-87
2021/01/10 10:56:48;;;;;;;;;7.00;7.00;;;;;;;;1524854;28;87080;-87
2021/01/10 10:57:35;;;;;;;;;9.00;9.00;;;;;;;;1523131;28;86384;-87
2021/01/10 10:58:20;;;;;;;;;5.80;5.80;;;;;;;;1522887;28;87107;-87
2021/01/10 10:59:06;;;;;;;;;10.75;10.75;;;;;;;;1519486;28;87138;-87
2021/01/10 10:59:51;;;;;;;;;8.50;8.50;;;;;;;;1522863;28;88497;-87
2021/01/10 11:00:36;;;;;;;;;6.00;6.00;;;;;;;;1525165;28;87060;-87
2021/01/10 11:01:21;;;;;;;;;11.00;11.00;;;;;;;;1529407;28;87425;-88
2021/01/10 11:02:09;;;;;;;;;8.50;8.50;;;;;;;;1529427;28;87038;-87
2021/01/10 11:02:54;;;;;;;;;6.80;6.80;;;;;;;;1528241;28;87355;-89
2021/01/10 11:03:40;;;;;;;;;10.25;10.25;;;;;;;;1523558;28;86979;-87
2021/01/10 11:04:25;;;;;;;;;9.25;9.25;;;;;;;;1520051;28;90197;-87
2021/01/10 11:05:11;;;;;;;;;10.75;10.75;;;;;;;;1525013;28;90486;-87
2021/01/10 11:05:56;;;;;;;;;9.50;9.50;;;;;;;;1529147;28;86954;-87
2021/01/10 11:06:41;;;;;;;;;10.25;10.25;;;;;;;;1529094;28;87513;-86
2021/01/10 11:07:27;;;;;;;;;9.00;9.00;;;;;;;;1535086;28;90280;-87
2021/01/10 11:08:13;;;;;;;;;11.80;11.80;;;;;;;;1526994;28;89594;-87
2021/01/10 11:08:58;;;;;;;;;10.00;10.00;;;;;;;;1529009;28;87644;-88
2021/01/10 11:09:45;;;;;;;;;11.00;11.00;;;;;;;;1527253;28;86998;-87
2021/01/10 11:10:30;;;;;;;;;11.20;11.20;;;;;;;;1529055;28;90799;-87
2021/01/10 11:11:15;;;;;;;;;13.00;13.00;;;;;;;;1522803;28;90170;-87
2021/01/10 11:12:01;;;;;;;;;11.75;11.75;;;;;;;;1524848;28;90277;-87
2021/01/10 11:12:46;;;;;;;;;11.75;11.75;;;;;;;;1524861;28;88721;-87
2021/01/10 11:13:31;;;;;;;;;10.50;10.50;;;;;;;;1528786;28;87014;-87
2021/01/10 11:14:17;;;;;;;;;8.25;8.25;;;;;;;;1525064;28;90617;-88
2021/01/10 11:15:04;;;;;;;;;8.00;8.00;;;;;;;;1522806;28;89660;-88
2021/01/10 11:15:49;;;;;;;;;4.60;4.60;;;;;;;;1525244;28;88757;-88
2021/01/10 11:16:35;;;;;;;;;4.75;4.75;;;;;;;;1524698;28;90124;-87
2021/01/10 11:17:21;;;;;;;;;5.40;5.40;;;;;;;;1530425;28;87066;-87
2021/01/10 11:18:06;;;;;;;;;4.00;4.00;;;;;;;;1530557;28;89576;-87
2021/01/10 11:18:52;;;;;;;;;9.75;9.75;;;;;;;;1523143;28;90418;-88
2021/01/10 11:19:37;;;;;;;;;5.75;5.75;;;;;;;;1522432;28;89778;-88
2021/01/10 11:20:22;;;;;;;;;9.75;9.75;;;;;;;;1530995;28;89135;-88
2021/01/10 11:21:08;;;;;;;;;8.75;8.75;;;;;;;;1532991;28;88621;-87
2021/01/10 11:21:53;;;;;;;;;6.75;6.75;;;;;;;;1534914;28;88869;-87
2021/01/10 11:22:39;;;;;;;;;8.00;8.00;;;;;;;;1526371;28;90226;-88
2021/01/10 11:23:24;;;;;;;;;8.60;8.60;;;;;;;;1521141;28;91508;-88
2021/01/10 11:24:10;;;;;;;;;9.00;9.00;;;;;;;;1513182;28;89977;-87
2021/01/10 11:24:56;;;;;;;;;5.00;5.00;;;;;;;;1520531;28;90275;-87
2021/01/10 11:25:41;;;;;;;;;6.00;6.00;;;;;;;;1525238;28;90552;-87
2021/01/10 11:26:26;;;;;;;;;6.00;6.00;;;;;;;;1528068;28;90009;-88
2021/01/10 11:27:11;;;;;;;;;7.25;7.25;;;;;;;;1529146;28;90467;-87
2021/01/10 11:27:57;;;;;;;;;6.00;6.00;;;;;;;;1525263;28;89667;-88
2021/01/10 11:28:42;;;;;;;;;4.50;4.50;;;;;;;;1529389;28;87728;-87
2021/01/10 11:29:27;;;;;;;;;8.25;8.25;;;;;;;;1525136;28;89564;-87
2021/01/10 11:30:14;;;;;;;;;5.75;5.75;;;;;;;;1523170;28;91697;-87
2021/01/10 11:30:59;;;;;;;;;8.00;8.00;;;;;;;;1525203;28;90545;-87
2021/01/10 11:31:45;;;;;;;;;6.50;6.50;;;;;;;;1525425;28;89314;-87
2021/01/10 11:32:32;;;;;;;;;6.00;6.00;;;;;;;;1529283;28;87765;-87
2021/01/10 11:33:17;;;;;;;;;6.00;6.00;;;;;;;;1525400;28;90417;-87
2021/01/10 11:34:03;;;;;;;;;5.00;5.00;;;;;;;;1523179;28;89290;-87
2021/01/10 11:34:48;;;;;;;;;5.50;3.75;;;;;;;;1527275;28;89870;-86
2021/01/10 11:35:33;;;;;;;;;8.00;8.00;;;;;;;;1527587;28;88620;-87
2021/01/10 11:36:21;;;;;;;;;8.00;8.00;;;;;;;;1525827;28;89410;-86
2021/01/10 11:37:07;;;;;;;;;9.00;9.00;;;;;;;;1533398;28;89367;-87
2021/01/10 11:37:54;;;;;;;;;8.75;8.75;;;;;;;;1539375;28;87698;-88
2021/01/10 11:38:40;;;;;;;;;8.80;8.80;;;;;;;;1535795;28;89518;-86
2021/01/10 11:39:25;;;;;;;;;6.20;6.20;;;;;;;;1525863;28;89032;-87
2021/01/10 11:40:10;;;;;;;;;5.50;5.50;;;;;;;;1519394;28;89381;-87
2021/01/10 11:40:56;;;;;;;;;7.25;7.25;;;;;;;;1529104;28;89210;-87
2021/01/10 11:41:42;;;;;;;;;9.75;8.75;;;;;;;;1528524;28;90260;-86
2021/01/10 11:42:28;;;;;;;;;5.80;5.80;;;;;;;;1528294;28;87826;-88
2021/01/10 11:43:13;;;;;;;;;6.25;6.25;;;;;;;;1525260;28;87502;-87
2021/01/10 11:43:58;;;;;;;;;6.50;6.50;;;;;;;;1527152;28;90614;-87
2021/01/10 11:44:43;;;;;;;;;8.75;8.75;;;;;;;;1524203;28;89286;-86
2021/01/10 11:45:28;;;;;;;;;11.25;11.25;;;;;;;;1522432;28;91653;-87
2021/01/10 11:46:14;;;;;;;;;10.75;10.75;;;;;;;;1527478;28;90577;-86
2021/01/10 11:47:00;;;;;;;;;9.50;9.50;;;;;;;;1528689;28;87085;-87
2021/01/10 11:47:45;;;;;;;;;10.40;10.40;;;;;;;;1522670;28;87032;-85
2021/01/10 11:48:31;;;;;;;;;10.00;10.00;;;;;;;;1523613;28;87100;-86
2021/01/10 11:49:16;;;;;;;;;8.25;8.25;;;;;;;;1530646;28;87118;-85
2021/01/10 11:50:02;;;;;;;;;10.00;10.00;;;;;;;;1527918;28;87298;-85
2021/01/10 11:50:47;;;;;;;;;8.75;8.75;;;;;;;;1522766;28;87041;-86
2021/01/10 11:51:32;;;;;;;;;10.00;10.00;;;;;;;;1524374;28;87038;-86
2021/01/10 11:52:17;;;;;;;;;10.00;10.00;;;;;;;;1530288;28;87253;-86
2021/01/10 11:53:03;;;;;;;;;9.00;9.00;;;;;;;;1526604;28;88273;-86
2021/01/10 11:53:48;;;;;;;;;9.75;9.75;;;;;;;;1518791;28;87095;-87
2021/01/10 11:54:33;;;;;;;;;10.25;9.25;;;;;;;;1524683;28;86966;-87
2021/01/10 11:55:18;;;;;;;;;9.75;9.75;;;;;;;;1525064;28;87338;-86
2021/01/10 11:56:04;;;;;;;;;10.00;10.00;;;;;;;;1524525;28;87210;-89
2021/01/10 11:56:49;;;;;;;;;10.25;10.25;;;;;;;;1526288;28;87445;-86
2021/01/10 11:57:34;;;;;;;;;16.25;13.50;;;;;;;;1530046;28;87706;-87
2021/01/10 11:58:20;;;;;;;;;11.00;9.50;;;;;;;;1533341;28;86406;-87
2021/01/10 11:59:05;;;;;;;;;12.00;12.00;;;;;;;;1528615;28;87277;-87
2021/01/10 11:59:50;;;;;;;;;13.00;13.00;;;;;;;;1528685;28;87439;-88
2021/01/10 12:00:36;;;;;;;;;15.00;15.00;;;;;;;;1530573;28;87882;-87
2021/01/10 12:01:29;;;;;;;;;14.75;14.75;;;;;;;;1528942;28;86978;-87
2021/01/10 12:02:14;;;;;;;;;14.60;14.60;;;;;;;;1528922;28;86965;-88
2021/01/10 12:02:59;;;;;;;;;18.50;17.75;;;;;;;;1522843;28;86917;-88
2021/01/10 12:03:47;;;;;;;;;14.25;14.25;;;;;;;;1525033;28;87551;-85
2021/01/10 12:04:32;;;;;;;;;13.20;13.20;;;;;;;;1530439;28;86955;-87
2021/01/10 12:05:17;;;;;;;;;15.25;15.25;;;;;;;;1528977;28;86713;-87
2021/01/10 12:06:03;;;;;;;;;14.25;14.25;;;;;;;;1528632;28;86745;-87
2021/01/10 12:06:49;;;;;;;;;14.80;14.80;;;;;;;;1524478;28;87391;-85
2021/01/10 12:07:35;;;;;;;;;16.00;16.00;;;;;;;;1522340;28;87197;-87
2021/01/10 12:08:21;;;;;;;;;14.20;14.20;;;;;;;;1527803;28;87850;-87
2021/01/10 12:09:08;;;;;;;;;14.60;14.60;;;;;;;;1528218;28;88913;-85
2021/01/10 12:09:53;;;;;;;;;14.80;14.80;;;;;;;;1525885;28;90425;-87
2021/01/10 12:10:39;;;;;;;;;15.75;15.75;;;;;;;;1522702;28;88046;-86
2021/01/10 12:11:24;;;;;;;;;10.75;10.75;;;;;;;;1524727;28;88057;-87
2021/01/10 12:12:09;;;;;;;;;13.50;13.50;;;;;;;;1530528;28;89450;-86
2021/01/10 12:12:55;;;;;;;;;11.75;11.75;;;;;;;;1528561;28;90597;-87
2021/01/10 12:13:41;;;;;;;;;12.50;12.50;;;;;;;;1528618;28;90130;-87
2021/01/10 12:14:26;;;;;;;;;14.40;14.40;;;;;;;;1524899;28;89568;-87
2021/01/10 12:15:11;;;;;;;;;11.50;11.50;;;;;;;;1522439;28;89576;-86
2021/01/10 12:15:58;;;;;;;;;15.00;15.00;;;;;;;;1524642;28;89222;-87
2021/01/10 12:16:43;;;;;;;;;16.00;16.00;;;;;;;;1524608;28;90626;-85
2021/01/10 12:17:29;;;;;;;;;10.00;10.00;;;;;;;;1528960;28;90453;-86
2021/01/10 12:18:14;;;;;;;;;10.75;10.75;;;;;;;;1524632;28;90345;-86
2021/01/10 12:18:59;;;;;;;;;12.50;12.50;;;;;;;;1522304;28;89941;-86
2021/01/10 12:19:45;;;;;;;;;15.25;15.25;;;;;;;;1524707;28;90335;-86
2021/01/10 12:20:31;;;;;;;;;16.75;15.75;;;;;;;;1524806;28;88859;-86
2021/01/10 12:21:16;;;;;;;;;15.80;15.80;;;;;;;;1522727;28;90055;-86
2021/01/10 12:22:01;;;;;;;;;14.75;14.75;;;;;;;;1524535;28;89463;-86
2021/01/10 12:22:48;;;;;;;;;14.00;14.00;;;;;;;;1530440;28;90239;-86
2021/01/10 12:23:33;;;;;;;;;13.60;12.20;;;;;;;;1532512;28;87981;-86
2021/01/10 12:24:18;;;;;;;;;9.75;9.75;;;;;;;;1525023;28;90752;-86
2021/01/10 12:25:04;;;;;;;;;9.75;9.75;;;;;;;;1522686;28;89205;-85
2021/01/10 12:25:49;;;;;;;;;8.00;8.00;;;;;;;;1524322;28;90834;-85
2021/01/10 12:26:34;;;;;;;;;10.00;10.00;;;;;;;;1530350;28;90308;-85
2021/01/10 12:27:19;;;;;;;;;11.25;11.25;;;;;;;;1534941;28;87801;-86
2021/01/10 12:28:05;;;;;;;;;5.00;5.00;;;;;;;;1528575;28;90218;-86
2021/01/10 12:28:50;;;;;;;;;10.50;10.50;;;;;;;;1522813;28;88868;-86
2021/01/10 12:29:35;;;;;;;;;9.25;9.25;;;;;;;;1525772;28;88505;-86
2021/01/10 12:30:21;;;;;;;;;9.75;9.75;;;;;;;;1524953;28;89124;-87
2021/01/10 12:31:07;;;;;;;;;10.80;10.80;;;;;;;;1527201;28;91768;-87
2021/01/10 12:32:01;;;;;;;;;9.00;9.00;;;;;;;;1522759;28;90458;-86
2021/01/10 12:32:46;;;;;;;;;8.00;8.00;;;;;;;;1525994;28;90463;-86